createdAt,value
2018-04-18T00:02:23.579Z,99.90
2018-04-18T00:04:51.231Z,99.90
2018-04-18T00:07:18.813Z,99.90
2018-04-18T00:09:46.402Z,99.90
2018-04-18T00:12:14.059Z,99.90
2018-04-18T00:14:42.422Z,99.90
2018-04-18T00:17:10.089Z,99.90
2018-04-18T00:19:38.477Z,99.90
2018-04-18T00:22:06.078Z,99.90
2018-04-18T00:24:34.150Z,99.90
2018-04-18T00:27:01.761Z,99.90
2018-04-18T00:29:29.353Z,99.90
2018-04-18T00:31:57.025Z,99.90
2018-04-18T00:34:25.553Z,99.90
2018-04-18T00:36:53.200Z,99.90
2018-04-18T00:39:20.810Z,99.90
2018-04-18T00:41:48.422Z,99.90
2018-04-18T00:44:16.000Z,99.90
2018-04-18T00:46:44.048Z,99.90
2018-04-18T00:49:11.708Z,99.90
2018-04-18T00:51:39.299Z,99.90
2018-04-18T00:54:06.926Z,99.90
2018-04-18T00:56:34.536Z,99.90
2018-04-18T00:59:02.968Z,99.90
2018-04-18T01:01:30.551Z,99.90
2018-04-18T01:03:58.214Z,99.90
2018-04-18T01:06:25.788Z,99.90
2018-04-18T01:08:54.145Z,99.90
2018-04-18T01:11:21.813Z,99.90
2018-04-18T01:13:49.416Z,99.90
2018-04-18T01:16:17.002Z,99.90
2018-04-18T01:18:44.612Z,99.90
2018-04-18T01:21:13.008Z,99.90
2018-04-18T01:23:40.575Z,99.90
2018-04-18T01:26:08.180Z,99.90
2018-04-18T01:28:35.784Z,99.90
2018-04-18T01:31:03.583Z,99.90
2018-04-18T01:33:31.217Z,99.90
2018-04-18T01:35:58.786Z,99.90
2018-04-18T01:38:26.377Z,99.90
2018-04-18T01:40:54.067Z,99.90
2018-04-18T01:43:22.109Z,99.90
2018-04-18T01:45:49.689Z,99.90
2018-04-18T01:48:17.337Z,99.90
2018-04-18T01:50:44.936Z,99.90
2018-04-18T01:53:13.890Z,99.90
2018-04-18T01:55:41.503Z,99.90
2018-04-18T01:58:09.133Z,99.90
2018-04-18T02:00:36.733Z,99.90
2018-04-18T02:03:04.398Z,99.90
2018-04-18T02:05:31.978Z,99.90
2018-04-18T02:07:59.581Z,99.90
2018-04-18T02:10:27.204Z,99.90
2018-04-18T02:12:54.782Z,99.90
2018-04-18T02:15:22.391Z,99.90
2018-04-18T02:17:50.019Z,99.90
2018-04-18T02:20:17.635Z,99.90
2018-04-18T02:22:45.229Z,99.90
2018-04-18T02:25:12.874Z,99.90
2018-04-18T02:27:40.461Z,99.90
2018-04-18T02:30:09.063Z,99.90
2018-04-18T02:32:36.679Z,99.90
2018-04-18T02:35:04.364Z,99.90
2018-04-18T02:37:31.987Z,99.90
2018-04-18T02:39:59.606Z,99.90
2018-04-18T02:42:27.521Z,99.90
2018-04-18T02:44:55.121Z,99.90
2018-04-18T02:47:22.722Z,99.90
2018-04-18T02:49:50.369Z,99.90
2018-04-18T02:52:18.739Z,99.90
2018-04-18T02:54:46.317Z,99.90
2018-04-18T02:57:13.936Z,99.90
2018-04-18T02:59:41.510Z,99.90
2018-04-18T03:02:09.749Z,99.90
2018-04-18T03:04:37.376Z,99.90
2018-04-18T03:07:05.004Z,99.90
2018-04-18T03:09:32.637Z,99.90
2018-04-18T03:12:01.061Z,99.90
2018-04-18T03:14:28.662Z,99.90
2018-04-18T03:16:56.284Z,99.90
2018-04-18T03:19:23.886Z,99.90
2018-04-18T03:21:51.490Z,99.90
2018-04-18T03:24:19.117Z,99.90
2018-04-18T03:26:47.796Z,99.90
2018-04-18T03:29:15.365Z,99.90
2018-04-18T03:31:42.968Z,99.90
2018-04-18T03:34:10.558Z,99.90
2018-04-18T03:36:38.198Z,99.90
2018-04-18T03:39:06.564Z,99.90
2018-04-18T03:41:34.470Z,99.90
2018-04-18T03:44:02.088Z,99.90
2018-04-18T03:46:30.067Z,99.90
2018-04-18T03:48:57.668Z,99.90
2018-04-18T03:51:25.332Z,99.90
2018-04-18T03:53:52.962Z,99.90
2018-04-18T03:56:20.601Z,99.90
2018-04-18T03:58:48.230Z,99.90
2018-04-18T04:01:15.866Z,99.90
2018-04-18T04:03:43.453Z,99.90
2018-04-18T04:06:11.096Z,99.90
2018-04-18T04:08:38.676Z,99.90
2018-04-18T04:11:06.275Z,99.90
2018-04-18T04:13:34.632Z,99.90
2018-04-18T04:16:02.442Z,99.90
2018-04-18T04:18:42.539Z,99.90
2018-04-18T04:21:22.072Z,99.90
2018-04-18T04:24:01.447Z,99.90
2018-04-18T04:26:30.456Z,99.90
2018-04-18T04:28:58.064Z,99.90
2018-04-18T04:31:25.908Z,99.90
2018-04-18T04:33:53.497Z,99.90
2018-04-18T04:36:21.093Z,99.90
2018-04-18T04:38:49.153Z,99.90
2018-04-18T04:41:16.757Z,99.90
2018-04-18T04:43:44.321Z,99.90
2018-04-18T04:46:11.977Z,99.90
2018-04-18T04:48:39.557Z,99.90
2018-04-18T04:51:07.236Z,99.90
2018-04-18T04:53:34.855Z,99.90
2018-04-18T04:56:02.464Z,99.90
2018-04-18T04:58:30.066Z,99.90
2018-04-18T05:00:58.562Z,99.90
2018-04-18T05:03:26.159Z,99.90
2018-04-18T05:05:53.811Z,99.90
2018-04-18T05:08:21.471Z,99.90
2018-04-18T05:10:49.134Z,99.90
2018-04-18T05:13:16.764Z,99.90
2018-04-18T05:15:44.385Z,99.90
2018-04-18T05:18:12.039Z,99.90
2018-04-18T05:20:39.684Z,99.90
2018-04-18T05:23:07.278Z,99.90
2018-04-18T05:25:34.882Z,99.90
2018-04-18T05:28:02.463Z,99.90
2018-04-18T05:30:30.639Z,99.90
2018-04-18T05:32:58.345Z,99.90
2018-04-18T05:35:26.041Z,99.90
2018-04-18T05:37:53.829Z,99.90
2018-04-18T05:40:21.785Z,99.90
2018-04-18T05:42:49.439Z,99.90
2018-04-18T05:45:17.066Z,99.90
2018-04-18T05:47:44.999Z,99.90
2018-04-18T05:50:12.692Z,99.90
2018-04-18T05:52:41.289Z,99.90
2018-04-18T05:55:08.882Z,99.90
2018-04-18T05:57:36.640Z,99.90
2018-04-18T06:00:04.285Z,99.90
2018-04-18T06:02:32.932Z,99.90
2018-04-18T06:05:00.595Z,99.90
2018-04-18T06:07:28.228Z,99.90
2018-04-18T06:09:55.843Z,99.90
2018-04-18T06:12:23.551Z,99.90
2018-04-18T06:14:51.530Z,99.90
2018-04-18T06:17:19.176Z,99.90
2018-04-18T06:19:46.910Z,99.90
2018-04-18T06:22:15.317Z,99.90
2018-04-18T06:24:42.899Z,99.90
2018-04-18T06:27:11.481Z,99.90
2018-04-18T06:29:39.256Z,99.90
2018-04-18T06:32:07.070Z,99.90
2018-04-18T06:34:35.467Z,99.90
2018-04-18T06:37:03.311Z,99.90
2018-04-18T06:39:31.763Z,99.90
2018-04-18T06:41:59.399Z,99.90
2018-04-18T06:44:27.009Z,99.90
2018-04-18T06:46:54.659Z,99.90
2018-04-18T06:49:22.270Z,99.90
2018-04-18T06:51:50.047Z,99.90
2018-04-18T06:54:17.679Z,99.90
2018-04-18T06:56:45.324Z,99.90
2018-04-18T06:59:12.966Z,99.90
2018-04-18T07:01:40.685Z,99.90
2018-04-18T07:04:08.365Z,99.90
2018-04-18T07:06:36.792Z,99.90
2018-04-18T07:09:04.570Z,99.90
2018-04-18T07:11:32.960Z,99.90
2018-04-18T07:14:00.595Z,99.90
2018-04-18T07:16:29.038Z,99.90
2018-04-18T07:18:56.655Z,99.90
2018-04-18T07:21:25.068Z,99.90
2018-04-18T07:23:52.755Z,99.90
2018-04-18T07:26:20.354Z,99.90
2018-04-18T07:28:49.254Z,99.90
2018-04-18T07:31:17.719Z,99.90
2018-04-18T07:33:46.192Z,99.90
2018-04-18T07:36:13.814Z,99.90
2018-04-18T07:38:41.556Z,99.90
2018-04-18T07:41:09.308Z,99.90
2018-04-18T07:43:36.935Z,99.90
2018-04-18T07:46:04.562Z,99.90
2018-04-18T07:48:32.554Z,99.90
2018-04-18T07:51:00.939Z,99.90
2018-04-18T07:53:28.510Z,99.90
2018-04-18T07:55:56.199Z,99.90
2018-04-18T07:58:23.896Z,99.90
2018-04-18T08:00:52.370Z,99.90
2018-04-18T08:03:19.998Z,99.90
2018-04-18T08:05:48.974Z,99.90
2018-04-18T08:08:16.592Z,99.90
2018-04-18T08:10:44.217Z,99.90
2018-04-18T08:13:12.167Z,99.90
2018-04-18T08:15:39.829Z,99.90
2018-04-18T08:18:07.928Z,99.90
2018-04-18T08:20:35.540Z,99.90
2018-04-18T08:23:03.220Z,99.90
2018-04-18T08:25:31.071Z,99.90
2018-04-18T08:27:58.702Z,99.90
2018-04-18T08:30:26.414Z,99.90
2018-04-18T08:32:54.118Z,99.90
2018-04-18T08:35:21.718Z,99.90
2018-04-18T08:37:49.374Z,99.90
2018-04-18T08:40:17.013Z,99.90
2018-04-18T08:42:44.750Z,99.90
2018-04-18T08:45:12.367Z,99.90
2018-04-18T08:47:40.044Z,99.90
2018-04-18T08:50:08.406Z,99.90
2018-04-18T08:52:37.110Z,99.90
2018-04-18T08:55:04.716Z,99.90
2018-04-18T08:57:32.368Z,99.90
2018-04-18T09:00:00.789Z,99.90
2018-04-18T09:02:28.459Z,99.90
2018-04-18T09:04:56.109Z,99.90
2018-04-18T09:07:24.029Z,99.90
2018-04-18T09:09:52.900Z,99.90
2018-04-18T09:12:20.520Z,99.90
2018-04-18T09:14:48.115Z,99.90
2018-04-18T09:17:15.751Z,99.90
2018-04-18T09:19:43.403Z,99.90
2018-04-18T09:22:11.345Z,99.90
2018-04-18T09:24:39.793Z,99.90
2018-04-18T09:27:07.473Z,99.90
2018-04-18T09:29:35.066Z,99.90
2018-04-18T09:32:02.659Z,99.90
2018-04-18T09:34:30.304Z,99.90
2018-04-18T09:36:58.049Z,99.90
2018-04-18T09:39:25.761Z,99.90
2018-04-18T09:41:53.320Z,99.90
2018-04-18T09:44:20.963Z,99.90
2018-04-18T09:46:48.549Z,99.90
2018-04-18T09:49:16.209Z,99.90
2018-04-18T09:51:44.023Z,99.90
2018-04-18T09:54:11.721Z,99.90
2018-04-18T09:56:39.343Z,99.90
2018-04-18T09:59:06.960Z,99.90
2018-04-18T10:01:40.296Z,99.90
2018-04-18T10:04:09.745Z,99.90
2018-04-18T10:06:37.372Z,99.90
2018-04-18T10:09:05.937Z,99.90
2018-04-18T10:11:34.345Z,99.90
2018-04-18T10:14:01.945Z,99.90
2018-04-18T10:16:29.552Z,99.90
2018-04-18T10:18:58.976Z,99.90
2018-04-18T10:21:26.632Z,99.90
2018-04-18T10:23:54.317Z,99.90
2018-04-18T10:26:21.969Z,99.90
2018-04-18T10:28:50.457Z,99.90
2018-04-18T10:31:18.166Z,99.90
2018-04-18T10:33:45.873Z,99.90
2018-04-18T10:36:13.495Z,99.90
2018-04-18T10:38:42.870Z,99.90
2018-04-18T10:41:10.529Z,99.90
2018-04-18T10:43:38.213Z,99.90
2018-04-18T10:46:05.885Z,99.90
2018-04-18T10:48:33.511Z,99.90
2018-04-18T10:51:01.101Z,99.90
2018-04-18T10:53:29.478Z,99.90
2018-04-18T10:55:57.298Z,99.90
2018-04-18T10:58:24.904Z,99.90
2018-04-18T11:00:52.647Z,99.90
2018-04-18T11:03:20.396Z,99.90
2018-04-18T11:05:48.158Z,99.80
2018-04-18T11:08:15.827Z,98.90
2018-04-18T11:10:43.476Z,99.10
2018-04-18T11:13:11.131Z,98.70
2018-04-18T11:15:38.871Z,99.10
2018-04-18T11:18:06.516Z,98.30
2018-04-18T11:20:34.900Z,98.70
2018-04-18T11:23:03.306Z,99.20
2018-04-18T11:25:31.028Z,99.20
2018-04-18T11:27:58.681Z,98.90
2018-04-18T11:30:26.302Z,98.80
2018-04-18T11:32:53.949Z,99.10
2018-04-18T11:35:21.537Z,99.10
2018-04-18T11:37:50.031Z,98.40
2018-04-18T11:40:17.704Z,98.40
2018-04-18T11:42:45.380Z,98.20
2018-04-18T11:45:12.980Z,98.50
2018-04-18T11:47:41.352Z,97.90
2018-04-18T11:50:09.390Z,97.90
2018-04-18T11:52:36.954Z,98.10
2018-04-18T11:55:04.555Z,98.20
2018-04-18T11:57:32.455Z,98.10
2018-04-18T12:00:00.068Z,98.00
2018-04-18T12:02:28.565Z,97.90
2018-04-18T12:04:56.211Z,97.90
2018-04-18T12:07:23.828Z,98.40
2018-04-18T12:09:51.566Z,98.20
2018-04-18T12:12:19.223Z,97.90
2018-04-18T12:14:46.987Z,98.20
2018-04-18T12:17:14.829Z,98.30
2018-04-18T12:19:42.463Z,98.80
2018-04-18T12:22:10.150Z,98.80
2018-04-18T12:24:38.598Z,98.60
2018-04-18T12:27:06.265Z,98.60
2018-04-18T12:29:33.885Z,97.80
2018-04-18T12:32:01.493Z,97.40
2018-04-18T12:34:29.133Z,96.90
2018-04-18T12:36:56.749Z,96.80
2018-04-18T12:39:24.422Z,96.80
2018-04-18T12:41:52.095Z,96.90
2018-04-18T12:44:19.710Z,96.70
2018-04-18T12:46:47.414Z,96.90
2018-04-18T12:49:15.028Z,96.40
2018-04-18T12:51:42.702Z,96.60
2018-04-18T12:54:10.305Z,96.60
2018-04-18T12:56:37.954Z,96.90
2018-04-18T12:59:05.564Z,97.60
2018-04-18T13:01:33.243Z,97.30
2018-04-18T13:04:00.911Z,96.90
2018-04-18T13:06:29.300Z,97.20
2018-04-18T13:08:57.786Z,97.10
2018-04-18T13:11:25.496Z,97.10
2018-04-18T13:13:53.114Z,97.30
2018-04-18T13:16:20.761Z,97.20
2018-04-18T13:18:48.846Z,97.20
2018-04-18T13:21:18.118Z,97.30
2018-04-18T13:23:45.791Z,97.30
2018-04-18T13:26:14.262Z,97.00
2018-04-18T13:28:41.995Z,97.10
2018-04-18T13:31:09.687Z,97.10
2018-04-18T13:33:37.583Z,96.60
2018-04-18T13:36:05.520Z,96.10
2018-04-18T13:38:33.281Z,96.40
2018-04-18T13:41:00.928Z,96.20
2018-04-18T13:43:28.613Z,96.20
2018-04-18T13:45:57.327Z,96.00
2018-04-18T13:48:25.064Z,95.90
2018-04-18T13:50:52.900Z,96.00
2018-04-18T13:53:20.578Z,95.90
2018-04-18T13:55:48.271Z,96.00
2018-04-18T13:58:16.719Z,95.70
2018-04-18T14:00:44.956Z,95.60
2018-04-18T14:03:12.596Z,95.60
2018-04-18T14:05:41.425Z,95.40
2018-04-18T14:08:09.111Z,95.40
2018-04-18T14:10:36.897Z,95.10
2018-04-18T14:13:05.328Z,95.00
2018-04-18T14:15:32.941Z,95.00
2018-04-18T14:18:00.700Z,94.40
2018-04-18T14:20:28.360Z,92.90
2018-04-18T14:22:56.109Z,93.20
2018-04-18T14:25:23.802Z,92.60
2018-04-18T14:27:52.269Z,92.70
2018-04-18T14:30:19.927Z,92.70
2018-04-18T14:32:47.570Z,92.90
2018-04-18T14:35:15.171Z,93.10
2018-04-18T14:37:42.756Z,93.40
2018-04-18T14:40:10.449Z,93.20
2018-04-18T14:42:38.082Z,93.10
2018-04-18T14:45:05.899Z,93.00
2018-04-18T14:47:33.527Z,93.10
2018-04-18T14:50:01.306Z,93.00
2018-04-18T14:52:28.939Z,93.10
2018-04-18T14:54:56.648Z,93.00
2018-04-18T14:57:24.260Z,92.30
2018-04-18T14:59:51.901Z,91.30
2018-04-18T15:02:19.729Z,90.10
2018-04-18T15:04:47.915Z,90.00
2018-04-18T15:07:15.776Z,89.10
2018-04-18T15:09:43.636Z,88.90
2018-04-18T15:12:11.248Z,87.40
2018-04-18T15:14:38.889Z,87.50
2018-04-18T15:17:06.599Z,88.80
2018-04-18T15:19:34.215Z,89.60
2018-04-18T15:22:02.604Z,90.50
2018-04-18T15:24:31.063Z,90.80
2018-04-18T15:26:58.655Z,91.20
2018-04-18T15:29:27.316Z,88.50
2018-04-18T15:31:54.982Z,88.50
2018-04-18T15:34:22.706Z,86.90
2018-04-18T15:36:50.388Z,85.60
2018-04-18T15:39:18.078Z,85.60
2018-04-18T15:41:45.846Z,85.20
2018-04-18T15:44:14.269Z,83.80
2018-04-18T15:46:41.959Z,83.70
2018-04-18T15:49:09.679Z,84.00
2018-04-18T15:51:37.302Z,83.70
2018-04-18T15:54:05.023Z,84.20
2018-04-18T15:56:32.618Z,85.60
2018-04-18T15:59:00.276Z,85.80
2018-04-18T16:01:28.228Z,84.20
2018-04-18T16:03:56.681Z,84.60
2018-04-18T16:06:24.816Z,84.60
2018-04-18T16:08:52.441Z,83.20
2018-04-18T16:11:20.253Z,83.80
2018-04-18T16:13:47.891Z,84.90
2018-04-18T16:16:15.661Z,84.50
2018-04-18T16:18:43.377Z,84.20
2018-04-18T16:21:11.000Z,83.80
2018-04-18T16:23:39.414Z,84.80
2018-04-18T16:26:07.007Z,84.80
2018-04-18T16:28:34.684Z,84.50
2018-04-18T16:31:02.416Z,83.90
2018-04-18T16:33:30.067Z,84.90
2018-04-18T16:35:57.736Z,83.30
2018-04-18T16:38:25.405Z,84.30
2018-04-18T16:40:53.284Z,83.30
2018-04-18T16:43:20.951Z,83.50
2018-04-18T16:45:48.646Z,83.80
2018-04-18T16:48:16.358Z,83.30
2018-04-18T16:50:43.996Z,83.50
2018-04-18T16:53:11.655Z,83.50
2018-04-18T16:55:39.348Z,84.10
2018-04-18T16:58:07.099Z,82.30
2018-04-18T17:00:35.579Z,82.70
2018-04-18T17:03:06.233Z,82.80
2018-04-18T17:05:33.875Z,82.80
2018-04-18T17:08:01.584Z,82.60
2018-04-18T17:10:29.292Z,82.10
2018-04-18T17:12:56.916Z,81.70
2018-04-18T17:15:25.532Z,82.50
2018-04-18T17:17:54.363Z,82.50
2018-04-18T17:20:22.105Z,83.30
2018-04-18T17:22:50.036Z,82.50
2018-04-18T17:25:18.435Z,82.70
2018-04-18T17:27:46.077Z,82.50
2018-04-18T17:30:13.795Z,82.00
2018-04-18T17:32:41.452Z,80.90
2018-04-18T17:35:09.873Z,79.90
2018-04-18T17:37:37.603Z,79.90
2018-04-18T17:40:05.287Z,78.20
2018-04-18T17:42:33.096Z,76.90
2018-04-18T17:45:00.725Z,76.00
2018-04-18T17:47:28.509Z,75.90
2018-04-18T17:49:57.536Z,75.00
2018-04-18T17:52:26.710Z,75.00
2018-04-18T17:54:54.293Z,75.30
2018-04-18T17:57:22.006Z,75.60
2018-04-18T17:59:49.997Z,76.20
2018-04-18T18:02:18.758Z,77.80
2018-04-18T18:04:47.261Z,77.80
2018-04-18T18:07:16.231Z,79.90
2018-04-18T18:09:43.906Z,79.90
2018-04-18T18:12:11.568Z,80.00
2018-04-18T18:14:39.198Z,81.20
2018-04-18T18:17:06.878Z,81.50
2018-04-18T18:19:34.507Z,82.30
2018-04-18T18:22:02.231Z,82.90
2018-04-18T18:24:29.913Z,83.70
2018-04-18T18:26:58.095Z,84.20
2018-04-18T18:29:26.057Z,85.30
2018-04-18T18:31:53.872Z,86.00
2018-04-18T18:34:21.858Z,86.60
2018-04-18T18:36:49.669Z,87.10
2018-04-18T18:39:17.326Z,87.10
2018-04-18T18:41:45.448Z,87.30
2018-04-18T18:44:13.223Z,88.50
2018-04-18T18:46:40.799Z,88.60
2018-04-18T18:49:09.519Z,89.90
2018-04-18T18:51:37.270Z,90.00
2018-04-18T18:54:05.345Z,89.10
2018-04-18T18:56:33.246Z,89.70
2018-04-18T18:59:00.969Z,90.10
2018-04-18T19:01:28.701Z,90.40
2018-04-18T19:03:56.455Z,90.60
2018-04-18T19:06:24.125Z,90.80
2018-04-18T19:08:51.821Z,90.90
2018-04-18T19:11:20.071Z,91.30
2018-04-18T19:13:47.731Z,91.60
2018-04-18T19:16:15.456Z,92.00
2018-04-18T19:18:43.193Z,92.50
2018-04-18T19:21:11.057Z,93.00
2018-04-18T19:23:38.754Z,93.40
2018-04-18T19:26:06.405Z,94.00
2018-04-18T19:28:34.139Z,94.50
2018-04-18T19:31:02.654Z,95.60
2018-04-18T19:33:30.297Z,95.50
2018-04-18T19:35:58.819Z,96.00
2018-04-18T19:38:27.272Z,97.00
2018-04-18T19:40:54.915Z,97.00
2018-04-18T19:43:22.547Z,97.50
2018-04-18T19:45:51.011Z,98.00
2018-04-18T19:48:18.735Z,98.40
2018-04-18T19:50:46.506Z,98.80
2018-04-18T19:53:14.217Z,99.10
2018-04-18T19:55:41.817Z,99.50
2018-04-18T19:58:09.510Z,99.90
2018-04-18T20:00:37.173Z,99.90
2018-04-18T20:03:04.963Z,99.90
2018-04-18T20:05:32.670Z,99.90
2018-04-18T20:08:00.379Z,99.90
2018-04-18T20:10:28.036Z,99.90
2018-04-18T20:12:55.726Z,99.90
2018-04-18T20:15:24.219Z,99.90
2018-04-18T20:17:52.617Z,99.90
2018-04-18T20:20:20.322Z,99.90
2018-04-18T20:22:47.940Z,99.90
2018-04-18T20:25:15.667Z,99.90
2018-04-18T20:27:43.300Z,99.90
2018-04-18T20:30:10.985Z,99.90
2018-04-18T20:32:38.776Z,99.90
2018-04-18T20:35:06.423Z,99.90
2018-04-18T20:37:34.265Z,99.90
2018-04-18T20:40:01.882Z,99.90
2018-04-18T20:42:29.629Z,99.90
2018-04-18T20:44:57.260Z,99.90
2018-04-18T20:47:24.871Z,99.90
2018-04-18T20:49:52.511Z,99.90
2018-04-18T20:52:20.919Z,99.90
2018-04-18T20:54:48.569Z,99.90
2018-04-18T20:57:17.095Z,99.90
2018-04-18T20:59:45.499Z,99.90
2018-04-18T21:02:13.218Z,99.90
2018-04-18T21:04:40.916Z,99.90
2018-04-18T21:07:08.615Z,99.90
2018-04-18T21:09:36.313Z,99.90
2018-04-18T21:12:04.879Z,99.90
2018-04-18T21:14:32.586Z,99.90
2018-04-18T21:17:00.358Z,99.90
2018-04-18T21:19:28.028Z,99.90
2018-04-18T21:21:55.720Z,99.90
2018-04-18T21:24:24.129Z,99.90
2018-04-18T21:26:51.789Z,99.90
2018-04-18T21:29:19.410Z,99.90
2018-04-18T21:31:47.862Z,99.90
2018-04-18T21:34:15.440Z,99.90
2018-04-18T21:36:43.939Z,99.90
2018-04-18T21:39:11.647Z,99.90
2018-04-18T21:41:39.277Z,99.90
2018-04-18T21:44:07.670Z,99.90
2018-04-18T21:46:35.355Z,99.90
2018-04-18T21:49:02.958Z,99.90
2018-04-18T21:51:31.537Z,99.90
2018-04-18T21:54:00.795Z,99.90
2018-04-18T21:56:28.393Z,99.90
2018-04-18T21:58:56.710Z,99.90
2018-04-18T22:07:23.641Z,99.90
2018-04-18T22:10:08.929Z,99.90
2018-04-18T22:12:36.681Z,99.90
2018-04-18T22:15:08.216Z,99.90
2018-04-18T22:17:35.909Z,99.90
2018-04-18T22:20:03.596Z,99.90
2018-04-18T22:22:32.005Z,99.90
2018-04-18T22:24:59.611Z,99.90
2018-04-18T22:27:27.284Z,99.90
2018-04-18T22:30:12.596Z,99.90
2018-04-18T22:32:40.221Z,99.90
2018-04-18T22:35:08.623Z,99.90
2018-04-18T22:37:36.385Z,99.90
2018-04-18T22:40:04.033Z,99.90
2018-04-18T22:42:31.689Z,99.90
2018-04-18T22:44:59.326Z,99.90
2018-04-18T22:47:27.091Z,99.90
2018-04-18T22:49:56.053Z,99.90
2018-04-18T22:52:23.743Z,99.90
2018-04-18T22:54:51.367Z,99.90
2018-04-18T22:57:18.966Z,99.90
2018-04-18T22:59:47.432Z,99.90
2018-04-18T23:02:15.461Z,99.90
2018-04-18T23:04:43.030Z,99.90
2018-04-18T23:07:10.653Z,99.90
2018-04-18T23:09:38.261Z,99.90
2018-04-18T23:12:05.989Z,99.90
2018-04-18T23:14:34.965Z,99.90
2018-04-18T23:17:03.186Z,99.90
2018-04-18T23:19:30.946Z,99.90
2018-04-18T23:21:58.558Z,99.90
2018-04-18T23:24:26.222Z,99.90
2018-04-18T23:26:54.811Z,99.90
2018-04-18T23:29:22.453Z,99.90
2018-04-18T23:31:50.091Z,99.90
2018-04-18T23:34:17.837Z,99.90
2018-04-18T23:36:45.455Z,99.90
2018-04-18T23:39:13.085Z,99.90
2018-04-18T23:41:40.721Z,99.90
2018-04-18T23:44:09.159Z,99.90
2018-04-18T23:46:36.875Z,99.90
2018-04-18T23:49:04.565Z,99.90
2018-04-18T23:51:32.196Z,99.90
2018-04-18T23:54:00.588Z,99.90
2018-04-18T23:56:28.293Z,99.90
2018-04-18T23:58:55.931Z,99.90
